セント・ジョンズ国際空港の過去48時間の天気

セント・ジョンズ国際空港 (St. John's)

現在時刻: 9/16 00:40 NDT (9/16 03:10 UTC) 以下の時間は現地時間です。

過去48時間のMETAR気象情報
時間 風向 風速(m/s) 視程 気温(℃) 湿度(%) 気圧(hPa) 天気現象
16 00:30 西 8 10km以上 13 100 1011.2 弱いしゅう雨 もや
16 00:04 西 8 10km以上 13 100 1011.7 弱いしゅう雨 もや
15 23:30 西 8 10km以上 13 100 1012.1
15 23:23 西 7 10km以上 13 100 1012.3
15 22:52 西 8 8050m 13 100 1012.6 弱い霧雨 もや
15 21:43 西南西 6 10km以上 13 94 1013.2
15 21:30 南西 6 10km以上 13 94 1013.3
15 21:17 南西 6 10km以上 13 94 1013.5
15 20:30 西南西 7 10km以上 13 94 1014.3
15 20:18 西南西 6 10km以上 13 94 1014.6
15 19:54 西南西 6 10km以上 13 94 1014.7 弱いしゅう雨
15 19:30 南西 5 10km以上 13 88 1014.8
15 19:13 南西 5 10km以上 13 88 1015
15 18:30 南西 5 10km以上 14 82 1015.1
15 17:30 西 5 10km以上 15 72 1015.8
CYYT 160300Z 26016G23KT 6SM -SHRA BR OVC004 13/13 A2985 RMK SF8 TCU EMBD SLP112 DENSITY ALT 500FT
CYYT 160234Z 26015KT 6SM -SHRA BR OVC003 13/13 A2987 RMK SF8 TCU EMBD SLP117
CYYT 160200Z 26015G20KT 10SM OVC004 13/13 A2988 RMK SF8 SLP121 DENSITY ALT 500FT
CYYT 160153Z 26014G21KT 8SM OVC004 13/13 A2988 RMK SF8 SLP123
CYYT 160122Z 26016G24KT 5SM -DZ BR OVC004 13/13 A2989 RMK SF8 VIS LWR W-NW SLP126
CYYT 160013Z 24012G17KT 15SM BKN007 OVC064 13/12 A2991 RMK SF6SC2 SLP132
CYYT 160000Z 23011G17KT 15SM SCT007 BKN100 13/12 A2991 RMK SF3AC2 SLP133
CYYT 152347Z 23012G19KT 15SM SCT007 BKN030 BKN100 13/12 A2992 RMK SF3SC2AC1 SLP135
CYYT 152300Z 24014G20KT 15SM OVC007 13/12 A2994 RMK SF8 SLP143
CYYT 152248Z 24012G17KT 15SM OVC007 13/12 A2995 RMK SF8 SLP146
CYYT 152224Z 24011G16KT 15SM -SHRA BKN009 OVC080 13/12 A2995 RMK SF6AC2 TCU EMBD SLP147
CYYT 152200Z 23009G16KT 15SM BKN011 OVC090 13/11 A2995 RMK SF5AC3 SLP148
CYYT 152143Z 23009G16KT 15SM BKN011 BKN090 OVC110 13/11 A2996 RMK SF6AC1AC1 SLP150
CYYT 152100Z 22010KT 15SM SCT020 BKN110 14/11 A2996 RMK SC3AC3 SLP151
CYYT 152000Z 26010KT 15SM OVC020 15/10 A2998 RMK SC8 SLP158 DENSITY ALT 500FT